createdAt,value
2018-06-24T00:01:42.322Z,22.56
2018-06-24T00:04:09.064Z,22.50
2018-06-24T00:06:35.645Z,22.51
2018-06-24T00:09:02.324Z,22.49
2018-06-24T00:11:29.018Z,22.50
2018-06-24T00:13:55.679Z,22.50
2018-06-24T00:16:22.304Z,22.49
2018-06-24T00:18:48.994Z,22.47
2018-06-24T00:21:15.637Z,22.46
2018-06-24T00:23:42.277Z,22.47
2018-06-24T00:26:08.972Z,22.49
2018-06-24T00:28:35.618Z,22.43
2018-06-24T00:31:02.303Z,22.41
2018-06-24T00:33:28.941Z,22.45
2018-06-24T00:35:55.626Z,22.43
2018-06-24T00:38:22.284Z,22.41
2018-06-24T00:40:48.999Z,22.42
2018-06-24T00:43:15.638Z,22.38
2018-06-24T00:45:42.269Z,22.39
2018-06-24T00:48:08.961Z,22.37
2018-06-24T00:50:35.596Z,22.36
2018-06-24T00:53:02.280Z,22.36
2018-06-24T00:55:28.972Z,22.39
2018-06-24T00:57:55.609Z,22.32
2018-06-24T01:00:22.259Z,22.32
2018-06-24T01:02:48.886Z,22.34
2018-06-24T01:05:15.526Z,22.28
2018-06-24T01:07:42.179Z,22.27
2018-06-24T01:10:08.823Z,22.33
2018-06-24T01:12:35.471Z,22.33
2018-06-24T01:15:02.109Z,22.32
2018-06-24T01:17:28.794Z,22.31
2018-06-24T01:19:55.407Z,22.28
2018-06-24T01:22:22.042Z,22.26
2018-06-24T01:24:48.712Z,22.22
2018-06-24T01:27:15.392Z,22.26
2018-06-24T01:29:42.130Z,22.23
2018-06-24T01:32:08.781Z,22.21
2018-06-24T01:34:35.414Z,22.18
2018-06-24T01:37:02.058Z,22.20
2018-06-24T01:39:28.701Z,22.23
2018-06-24T01:41:55.347Z,22.19
2018-06-24T01:44:21.978Z,22.16
2018-06-24T01:46:48.696Z,22.17
2018-06-24T01:49:15.335Z,22.19
2018-06-24T01:51:41.968Z,22.14
2018-06-24T01:54:08.605Z,22.21
2018-06-24T01:56:35.250Z,22.15
2018-06-24T01:59:01.889Z,22.15
2018-06-24T02:01:28.548Z,22.11
2018-06-24T02:03:55.180Z,22.17
2018-06-24T02:06:21.822Z,22.10
2018-06-24T02:08:48.449Z,22.11
2018-06-24T02:11:15.089Z,22.08
2018-06-24T02:13:41.742Z,22.07
2018-06-24T02:16:08.415Z,22.08
2018-06-24T02:18:35.058Z,22.08
2018-06-24T02:21:01.696Z,22.07
2018-06-24T02:23:28.339Z,22.05
2018-06-24T02:25:57.845Z,22.07
2018-06-24T02:28:24.501Z,22.06
2018-06-24T02:30:51.139Z,22.03
2018-06-24T02:33:17.809Z,22.02
2018-06-24T02:35:44.435Z,22.05
2018-06-24T02:38:11.074Z,22.03
2018-06-24T02:40:37.745Z,22.01
2018-06-24T02:43:04.340Z,22.07
2018-06-24T02:45:31.024Z,22.06
2018-06-24T02:47:57.620Z,21.98
2018-06-24T02:50:24.257Z,22.00
2018-06-24T02:52:50.910Z,21.94
2018-06-24T02:55:17.587Z,22.00
2018-06-24T02:57:44.229Z,21.97
2018-06-24T03:00:10.862Z,21.93
2018-06-24T03:02:37.513Z,21.93
2018-06-24T03:05:04.205Z,21.93
2018-06-24T03:07:30.857Z,21.92
2018-06-24T03:09:57.515Z,21.95
2018-06-24T03:12:24.147Z,21.93
2018-06-24T03:14:50.802Z,21.96
2018-06-24T03:17:17.475Z,21.94
2018-06-24T03:19:44.142Z,21.98
2018-06-24T03:22:10.808Z,22.01
2018-06-24T03:24:37.417Z,22.05
2018-06-24T03:27:04.055Z,22.02
2018-06-24T03:29:30.692Z,22.04
2018-06-24T03:31:57.322Z,22.01
2018-06-24T03:34:23.967Z,22.00
2018-06-24T03:36:50.610Z,22.02
2018-06-24T03:39:17.316Z,22.11
2018-06-24T03:41:43.970Z,22.11
2018-06-24T03:44:10.618Z,22.12
2018-06-24T03:46:37.262Z,22.11
2018-06-24T03:49:03.927Z,22.12
2018-06-24T03:51:30.578Z,22.18
2018-06-24T03:53:57.216Z,22.13
2018-06-24T03:56:23.895Z,22.15
2018-06-24T03:58:50.545Z,22.23
2018-06-24T04:01:17.185Z,22.25
2018-06-24T04:03:43.820Z,22.33
2018-06-24T04:06:10.478Z,22.44
2018-06-24T04:08:37.165Z,22.49
2018-06-24T04:11:03.798Z,22.55
2018-06-24T04:13:30.429Z,22.65
2018-06-24T04:15:57.076Z,22.67
2018-06-24T04:18:23.771Z,22.76
2018-06-24T04:20:50.348Z,22.87
2018-06-24T04:23:16.986Z,22.89
2018-06-24T04:25:43.639Z,22.89
2018-06-24T04:30:36.899Z,23.01
2018-06-24T04:33:03.553Z,23.08
2018-06-24T04:35:30.193Z,23.11
2018-06-24T04:37:56.862Z,23.16
2018-06-24T04:40:23.499Z,23.21
2018-06-24T04:42:50.147Z,23.25
2018-06-24T04:45:16.780Z,23.34
2018-06-24T04:47:43.516Z,23.37
2018-06-24T04:50:10.119Z,23.41
2018-06-24T04:52:36.752Z,23.47
2018-06-24T04:55:03.433Z,23.50
2018-06-24T04:57:30.082Z,23.56
2018-06-24T04:59:56.762Z,23.62
2018-06-24T05:02:23.407Z,23.71
2018-06-24T05:04:50.035Z,23.75
2018-06-24T05:07:16.685Z,23.76
2018-06-24T05:09:43.381Z,23.85
2018-06-24T05:12:10.026Z,23.91
2018-06-24T05:14:36.669Z,23.99
2018-06-24T05:17:03.307Z,24.03
2018-06-24T05:19:29.994Z,24.04
2018-06-24T05:21:56.629Z,24.10
2018-06-24T05:24:23.281Z,24.14
2018-06-24T05:26:50.052Z,24.20
2018-06-24T05:29:16.686Z,24.21
2018-06-24T05:31:43.333Z,24.25
2018-06-24T05:34:09.974Z,24.31
2018-06-24T05:36:36.655Z,24.38
2018-06-24T05:39:03.310Z,24.41
2018-06-24T05:41:29.938Z,24.40
2018-06-24T05:43:56.587Z,24.46
2018-06-24T05:46:23.230Z,24.47
2018-06-24T05:48:49.941Z,24.51
2018-06-24T05:51:16.552Z,24.55
2018-06-24T05:53:43.193Z,24.55
2018-06-24T05:56:09.837Z,24.54
2018-06-24T05:58:36.475Z,24.55
2018-06-24T06:01:03.115Z,24.49
2018-06-24T06:03:29.756Z,24.47
2018-06-24T06:05:56.400Z,24.50
2018-06-24T06:08:23.056Z,24.54
2018-06-24T06:10:49.693Z,24.55
2018-06-24T06:13:16.374Z,24.54
2018-06-24T06:15:44.636Z,24.64
2018-06-24T06:18:09.659Z,24.65
2018-06-24T06:20:36.308Z,24.69
2018-06-24T06:23:02.950Z,24.76
2018-06-24T06:25:29.588Z,24.83
2018-06-24T06:27:56.239Z,24.84
2018-06-24T06:30:22.888Z,24.91
2018-06-24T06:32:49.506Z,24.97
2018-06-24T06:35:16.149Z,25.02
2018-06-24T06:37:42.794Z,25.08
2018-06-24T06:40:09.478Z,25.10
2018-06-24T06:42:36.122Z,25.14
2018-06-24T06:45:02.868Z,25.14
2018-06-24T06:47:29.410Z,25.20
2018-06-24T06:49:56.043Z,25.21
2018-06-24T06:52:22.693Z,25.16
2018-06-24T06:54:49.337Z,25.19
2018-06-24T06:57:16.034Z,25.29
2018-06-24T06:59:42.671Z,25.30
2018-06-24T07:02:09.317Z,25.30
2018-06-24T07:04:35.994Z,25.26
2018-06-24T07:07:02.630Z,25.33
2018-06-24T07:09:29.308Z,25.33
2018-06-24T07:11:55.910Z,25.33
2018-06-24T07:14:22.558Z,25.37
2018-06-24T07:16:49.192Z,25.36
2018-06-24T07:19:15.836Z,25.41
2018-06-24T07:21:42.480Z,25.41
2018-06-24T07:24:09.125Z,25.40
2018-06-24T07:26:35.761Z,25.45
2018-06-24T07:29:02.453Z,25.38
2018-06-24T07:31:29.090Z,25.40
2018-06-24T07:33:55.733Z,25.29
2018-06-24T07:36:22.393Z,25.28
2018-06-24T07:38:49.037Z,25.23
2018-06-24T07:41:15.690Z,25.22
2018-06-24T07:43:42.326Z,25.14
2018-06-24T07:46:09.003Z,25.07
2018-06-24T07:48:35.610Z,25.05
2018-06-24T07:51:02.243Z,25.04
2018-06-24T07:53:28.894Z,25.07
2018-06-24T07:55:55.547Z,25.04
2018-06-24T07:58:22.174Z,25.02
2018-06-24T08:00:48.818Z,24.95
2018-06-24T08:03:15.455Z,24.91
2018-06-24T08:05:42.141Z,24.91
2018-06-24T08:08:08.776Z,24.95
2018-06-24T08:10:35.407Z,24.95
2018-06-24T08:13:02.059Z,24.98
2018-06-24T08:15:28.713Z,24.99
2018-06-24T08:17:55.346Z,24.91
2018-06-24T08:20:22.035Z,24.94
2018-06-24T08:22:48.730Z,24.98
2018-06-24T08:25:15.298Z,24.98
2018-06-24T08:27:41.944Z,24.98
2018-06-24T08:30:08.593Z,24.97
2018-06-24T08:32:35.284Z,24.88
2018-06-24T08:35:01.919Z,24.90
2018-06-24T08:37:28.559Z,24.90
2018-06-24T08:39:55.197Z,24.90
2018-06-24T08:42:21.881Z,24.96
2018-06-24T08:44:48.520Z,24.97
2018-06-24T08:47:15.205Z,24.98
2018-06-24T08:49:41.883Z,24.88
2018-06-24T08:52:08.482Z,24.95
2018-06-24T08:54:35.119Z,24.94
2018-06-24T08:57:01.878Z,24.98
2018-06-24T08:59:28.561Z,24.94
2018-06-24T09:01:55.193Z,25.01
2018-06-24T09:04:21.878Z,24.90
2018-06-24T09:06:48.513Z,24.96
2018-06-24T09:09:15.184Z,25.00
2018-06-24T09:11:41.785Z,25.00
2018-06-24T09:14:08.477Z,25.03
2018-06-24T09:16:35.121Z,25.03
2018-06-24T09:19:01.766Z,25.01
2018-06-24T09:21:28.418Z,24.95
2018-06-24T09:23:55.046Z,25.04
2018-06-24T09:26:21.692Z,25.03
2018-06-24T09:28:48.337Z,25.06
2018-06-24T09:31:15.023Z,25.06
2018-06-24T09:33:41.659Z,25.04
2018-06-24T09:36:08.298Z,24.93
2018-06-24T09:38:34.946Z,24.93
2018-06-24T09:41:01.600Z,24.93
2018-06-24T09:43:28.302Z,24.95
2018-06-24T09:45:54.904Z,24.96
2018-06-24T09:48:21.546Z,24.94
2018-06-24T09:50:48.183Z,24.94
2018-06-24T09:53:14.830Z,24.90
2018-06-24T09:55:41.479Z,24.87
2018-06-24T09:58:08.126Z,24.85
2018-06-24T10:00:34.769Z,24.88
2018-06-24T10:03:01.435Z,24.88
2018-06-24T10:05:28.072Z,24.91
2018-06-24T10:07:54.714Z,24.94
2018-06-24T10:10:21.350Z,24.92
2018-06-24T10:12:47.994Z,24.92
2018-06-24T10:15:14.633Z,24.81
2018-06-24T10:17:41.272Z,24.84
2018-06-24T10:20:07.916Z,24.83
2018-06-24T10:22:34.566Z,24.81
2018-06-24T10:25:01.217Z,24.86
2018-06-24T10:27:27.847Z,24.79
2018-06-24T10:29:54.498Z,24.80
2018-06-24T10:32:21.138Z,24.83
2018-06-24T10:34:47.837Z,24.77
2018-06-24T10:37:14.522Z,24.73
2018-06-24T10:39:41.171Z,24.75
2018-06-24T10:42:07.850Z,24.76
2018-06-24T10:44:34.494Z,24.77
2018-06-24T10:47:01.122Z,24.73
2018-06-24T10:49:31.054Z,24.75
2018-06-24T10:51:57.697Z,24.78
2018-06-24T10:54:24.337Z,24.76
2018-06-24T10:56:50.988Z,24.79
2018-06-24T10:59:17.635Z,24.70
2018-06-24T11:01:44.278Z,24.69
2018-06-24T11:04:10.923Z,24.71
2018-06-24T11:06:37.561Z,24.73
2018-06-24T11:09:04.326Z,24.78
2018-06-24T11:11:30.969Z,24.81
2018-06-24T11:13:57.646Z,24.84
2018-06-24T11:16:24.296Z,24.85
2018-06-24T11:18:50.935Z,24.81
2018-06-24T11:21:17.614Z,24.87
2018-06-24T11:23:44.249Z,24.94
2018-06-24T11:26:10.886Z,24.99
2018-06-24T11:28:39.102Z,25.01
2018-06-24T11:31:04.222Z,25.04
2018-06-24T11:33:30.894Z,25.02
2018-06-24T11:35:57.537Z,24.93
2018-06-24T11:38:24.183Z,24.98
2018-06-24T11:40:50.897Z,24.99
2018-06-24T11:43:17.547Z,25.00
2018-06-24T11:45:44.201Z,25.00
2018-06-24T11:48:10.955Z,24.97
2018-06-24T11:50:37.569Z,24.97
2018-06-24T11:53:04.209Z,25.03
2018-06-24T11:55:30.890Z,24.99
2018-06-24T11:57:57.542Z,24.95
2018-06-24T12:00:24.179Z,24.89
2018-06-24T12:02:50.826Z,24.90
2018-06-24T12:05:17.461Z,24.94
2018-06-24T12:07:44.112Z,24.97
2018-06-24T12:10:10.788Z,24.99
2018-06-24T12:12:37.425Z,24.99
2018-06-24T12:15:04.060Z,25.03
2018-06-24T12:17:30.740Z,24.92
2018-06-24T12:19:57.386Z,24.92
2018-06-24T12:22:24.025Z,24.89
2018-06-24T12:24:50.663Z,24.91
2018-06-24T12:27:17.350Z,24.95
2018-06-24T12:29:44.026Z,24.95
2018-06-24T12:32:10.625Z,24.98
2018-06-24T12:34:37.273Z,24.95
2018-06-24T12:37:03.908Z,25.00
2018-06-24T12:39:30.559Z,24.98
2018-06-24T12:41:57.247Z,24.98
2018-06-24T12:44:23.887Z,25.00
2018-06-24T12:46:50.538Z,25.01
2018-06-24T12:49:17.178Z,25.08
2018-06-24T12:51:43.834Z,25.08
2018-06-24T12:54:10.469Z,25.08
2018-06-24T12:56:37.140Z,25.09
2018-06-24T12:59:03.893Z,25.07
2018-06-24T13:01:30.450Z,25.00
2018-06-24T13:03:57.058Z,25.00
2018-06-24T13:06:23.699Z,25.02
2018-06-24T13:08:50.384Z,25.07
2018-06-24T13:11:17.103Z,25.09
2018-06-24T13:13:43.742Z,25.15
2018-06-24T13:16:10.427Z,25.13
2018-06-24T13:18:37.106Z,25.04
2018-06-24T13:21:03.707Z,25.04
2018-06-24T13:23:30.449Z,25.11
2018-06-24T13:25:57.171Z,25.10
2018-06-24T13:28:23.773Z,25.12
2018-06-24T13:30:50.461Z,25.17
2018-06-24T13:33:17.142Z,25.17
2018-06-24T13:35:43.780Z,25.19
2018-06-24T13:38:10.428Z,25.15
2018-06-24T13:40:37.074Z,25.07
2018-06-24T13:43:03.762Z,25.13
2018-06-24T13:45:30.467Z,25.16
2018-06-24T13:47:57.105Z,25.19
2018-06-24T13:50:23.748Z,25.17
2018-06-24T13:52:50.394Z,25.17
2018-06-24T13:55:17.033Z,25.21
2018-06-24T13:57:43.682Z,25.22
2018-06-24T14:00:10.376Z,25.07
2018-06-24T14:02:37.011Z,25.10
2018-06-24T14:05:03.675Z,25.14
2018-06-24T14:07:30.286Z,25.18
2018-06-24T14:09:56.937Z,25.14
2018-06-24T14:12:23.582Z,25.18
2018-06-24T14:14:50.257Z,25.20
2018-06-24T14:17:16.893Z,25.17
2018-06-24T14:19:43.637Z,25.12
2018-06-24T14:22:10.276Z,25.10
2018-06-24T14:24:36.925Z,25.08
2018-06-24T14:27:03.585Z,25.11
2018-06-24T14:29:30.234Z,25.13
2018-06-24T14:31:56.892Z,25.15
2018-06-24T14:34:23.570Z,25.13
2018-06-24T14:36:50.222Z,25.13
2018-06-24T14:39:16.889Z,25.15
2018-06-24T14:41:43.535Z,25.15
2018-06-24T14:44:10.240Z,25.14
2018-06-24T14:46:36.828Z,25.13
2018-06-24T14:49:03.502Z,25.13
2018-06-24T14:51:30.149Z,25.13
2018-06-24T14:53:56.782Z,25.00
2018-06-24T14:56:23.435Z,25.00
2018-06-24T14:58:50.078Z,24.99
2018-06-24T15:01:16.791Z,25.03
2018-06-24T15:03:43.385Z,25.01
2018-06-24T15:06:10.032Z,25.02
2018-06-24T15:08:36.713Z,25.03
2018-06-24T15:11:03.354Z,25.03
2018-06-24T15:13:30.015Z,25.04
2018-06-24T15:15:56.690Z,24.99
2018-06-24T15:18:23.374Z,24.99
2018-06-24T15:20:50.015Z,25.04
2018-06-24T15:23:16.669Z,25.00
2018-06-24T15:25:43.310Z,25.01
2018-06-24T15:28:09.953Z,25.00
2018-06-24T15:30:36.612Z,24.96
2018-06-24T15:33:03.300Z,25.00
2018-06-24T15:35:29.905Z,24.91
2018-06-24T15:37:56.549Z,24.90
2018-06-24T15:40:23.225Z,24.88
2018-06-24T15:42:49.961Z,24.88
2018-06-24T15:45:16.598Z,24.93
2018-06-24T15:47:43.247Z,24.92
2018-06-24T15:50:09.922Z,24.89
2018-06-24T15:52:36.610Z,24.89
2018-06-24T15:55:03.302Z,24.88
2018-06-24T15:57:29.932Z,24.87
2018-06-24T15:59:56.569Z,24.86
2018-06-24T16:02:23.259Z,24.89
2018-06-24T16:04:49.937Z,24.88
2018-06-24T16:07:16.576Z,24.89
2018-06-24T16:09:43.260Z,24.87
2018-06-24T16:12:10.028Z,24.88
2018-06-24T16:14:36.701Z,24.87
2018-06-24T16:17:03.386Z,24.87
2018-06-24T16:19:30.061Z,24.86
2018-06-24T16:21:56.761Z,24.88
2018-06-24T16:24:23.409Z,24.85
2018-06-24T16:26:50.043Z,24.87
2018-06-24T16:29:16.771Z,24.89
2018-06-24T16:31:43.373Z,24.84
2018-06-24T16:34:10.024Z,24.87
2018-06-24T16:36:36.663Z,24.85
2018-06-24T16:39:03.312Z,24.83
2018-06-24T16:41:29.955Z,24.88
2018-06-24T16:43:56.607Z,24.84
2018-06-24T16:46:23.300Z,24.84
2018-06-24T16:48:49.940Z,24.83
2018-06-24T16:51:16.591Z,24.84
2018-06-24T16:53:43.239Z,24.83
2018-06-24T16:56:09.892Z,24.80
2018-06-24T16:58:36.532Z,24.84
2018-06-24T17:01:03.232Z,24.80
2018-06-24T17:03:29.873Z,24.77
2018-06-24T17:05:56.518Z,24.76
2018-06-24T17:08:23.162Z,24.77
2018-06-24T17:10:49.884Z,24.76
2018-06-24T17:13:17.839Z,24.74
2018-06-24T17:15:43.246Z,24.70
2018-06-24T17:18:09.922Z,24.74
2018-06-24T17:20:36.566Z,24.73
2018-06-24T17:23:03.271Z,24.68
2018-06-24T17:25:29.909Z,24.68
2018-06-24T17:27:56.665Z,24.68
2018-06-24T17:30:23.317Z,24.66
2018-06-24T17:32:49.955Z,24.61
2018-06-24T17:35:16.604Z,24.63
2018-06-24T17:37:43.300Z,24.58
2018-06-24T17:40:09.940Z,24.57
2018-06-24T17:42:36.575Z,24.58
2018-06-24T17:45:03.267Z,24.53
2018-06-24T17:47:29.973Z,24.54
2018-06-24T17:49:56.576Z,24.53
2018-06-24T17:52:23.290Z,24.51
2018-06-24T17:54:49.895Z,24.47
2018-06-24T17:57:16.569Z,24.51
2018-06-24T17:59:43.204Z,24.46
2018-06-24T18:02:09.887Z,24.48
2018-06-24T18:04:36.534Z,24.47
2018-06-24T18:07:03.170Z,24.44
2018-06-24T18:09:29.815Z,24.51
2018-06-24T18:11:56.534Z,24.47
2018-06-24T18:14:23.222Z,24.46
2018-06-24T18:16:49.864Z,24.50
2018-06-24T18:19:16.547Z,24.48
2018-06-24T18:21:43.274Z,24.42
2018-06-24T18:24:09.879Z,24.39
2018-06-24T18:26:36.645Z,24.45
2018-06-24T18:29:03.244Z,24.44
2018-06-24T18:31:29.893Z,24.43
2018-06-24T18:33:56.577Z,24.44
2018-06-24T18:36:23.259Z,24.44
2018-06-24T18:38:49.901Z,24.41
2018-06-24T18:41:16.574Z,24.40
2018-06-24T18:43:43.209Z,24.39
2018-06-24T18:46:09.842Z,24.40
2018-06-24T18:48:36.485Z,24.38
2018-06-24T18:51:03.120Z,24.37
2018-06-24T18:53:29.803Z,24.35
2018-06-24T18:55:56.444Z,24.36
2018-06-24T18:58:24.295Z,24.33
2018-06-24T19:00:49.723Z,24.32
2018-06-24T19:03:16.414Z,24.33
2018-06-24T19:05:43.050Z,24.30
2018-06-24T19:08:09.685Z,24.29
2018-06-24T19:10:36.332Z,24.28
2018-06-24T19:13:05.962Z,24.28
2018-06-24T19:15:32.650Z,24.24
2018-06-24T19:17:59.289Z,24.23
2018-06-24T19:20:25.978Z,24.24
2018-06-24T19:22:52.615Z,24.21
2018-06-24T19:25:19.323Z,24.17
2018-06-24T19:27:45.933Z,24.20
2018-06-24T19:30:12.569Z,24.18
2018-06-24T19:32:39.335Z,24.17
2018-06-24T19:35:05.905Z,24.17
2018-06-24T19:37:32.575Z,24.16
2018-06-24T19:39:59.200Z,24.14
2018-06-24T19:42:25.836Z,24.13
2018-06-24T19:44:52.597Z,24.13
2018-06-24T19:47:19.227Z,24.11
2018-06-24T19:49:45.916Z,24.12
2018-06-24T19:52:12.550Z,24.09
2018-06-24T19:54:39.263Z,24.07
2018-06-24T19:57:05.877Z,24.09
2018-06-24T19:59:35.549Z,24.06
2018-06-24T20:02:02.194Z,24.05
2018-06-24T20:04:28.905Z,24.04
2018-06-24T20:06:55.553Z,23.99
2018-06-24T20:09:22.231Z,24.03
2018-06-24T20:11:48.875Z,24.01
2018-06-24T20:14:15.519Z,24.00
2018-06-24T20:16:42.149Z,24.00
2018-06-24T20:19:08.794Z,23.96
2018-06-24T20:21:35.434Z,23.95
2018-06-24T20:24:02.083Z,23.96
2018-06-24T20:26:28.717Z,23.92
2018-06-24T20:28:55.433Z,23.94
2018-06-24T20:31:22.045Z,23.91
2018-06-24T20:33:48.730Z,23.92
2018-06-24T20:36:15.365Z,23.91
2018-06-24T20:38:42.051Z,23.83
2018-06-24T20:41:08.695Z,23.87
2018-06-24T20:43:35.316Z,23.86
2018-06-24T20:46:01.967Z,23.86
2018-06-24T20:48:28.605Z,23.84
2018-06-24T20:50:55.332Z,23.82
2018-06-24T20:53:21.928Z,23.83
2018-06-24T20:55:48.562Z,23.78
2018-06-24T20:58:15.250Z,23.83
2018-06-24T21:00:41.889Z,23.78
2018-06-24T21:03:08.570Z,23.77
2018-06-24T21:05:35.204Z,23.80
2018-06-24T21:08:01.881Z,23.76
2018-06-24T21:10:28.513Z,23.74
2018-06-24T21:12:55.195Z,23.73
2018-06-24T21:15:21.877Z,23.74
2018-06-24T21:17:48.513Z,23.72
2018-06-24T21:20:15.153Z,23.72
2018-06-24T21:22:41.803Z,23.68
2018-06-24T21:25:08.485Z,23.69
2018-06-24T21:27:35.118Z,23.68
2018-06-24T21:30:01.800Z,23.65
2018-06-24T21:32:28.475Z,23.65
2018-06-24T21:34:55.084Z,23.62
2018-06-24T21:37:21.780Z,23.61
2018-06-24T21:39:48.458Z,23.64
2018-06-24T21:42:15.098Z,23.64
2018-06-24T21:44:41.734Z,23.56
2018-06-24T21:47:08.437Z,23.58
2018-06-24T21:49:35.105Z,23.57
2018-06-24T21:52:01.769Z,23.52
2018-06-24T21:54:28.403Z,23.52
2018-06-24T21:56:55.099Z,23.52
2018-06-24T21:59:21.786Z,23.51
2018-06-24T22:01:48.432Z,23.47
2018-06-24T22:04:15.075Z,23.49
2018-06-24T22:06:41.781Z,23.44
2018-06-24T22:09:08.367Z,23.47
2018-06-24T22:11:35.018Z,23.46
2018-06-24T22:14:01.668Z,23.43
2018-06-24T22:16:28.309Z,23.43
2018-06-24T22:18:54.967Z,23.47
2018-06-24T22:21:21.617Z,23.45
2018-06-24T22:23:48.259Z,23.40
2018-06-24T22:26:14.937Z,23.38
2018-06-24T22:28:41.581Z,23.38
2018-06-24T22:31:08.240Z,23.37
2018-06-24T22:33:34.883Z,23.37
2018-06-24T22:36:01.525Z,23.36
2018-06-24T22:38:28.171Z,23.34
2018-06-24T22:40:54.809Z,23.35
2018-06-24T22:43:21.458Z,23.30
2018-06-24T22:45:48.140Z,23.29
2018-06-24T22:48:14.745Z,23.30
2018-06-24T22:50:41.391Z,23.28
2018-06-24T22:53:08.048Z,23.28
2018-06-24T22:55:34.680Z,23.28
2018-06-24T22:58:01.318Z,23.26
2018-06-24T23:00:27.967Z,23.25
2018-06-24T23:02:54.625Z,23.18
2018-06-24T23:05:21.267Z,23.25
2018-06-24T23:07:47.910Z,23.20
2018-06-24T23:10:14.547Z,23.19
2018-06-24T23:12:41.185Z,23.23
2018-06-24T23:15:07.833Z,23.20
2018-06-24T23:17:34.466Z,23.17
2018-06-24T23:20:01.123Z,23.23
2018-06-24T23:22:27.754Z,23.16
2018-06-24T23:24:54.397Z,23.14
2018-06-24T23:27:21.080Z,23.14
2018-06-24T23:29:47.693Z,23.15
2018-06-24T23:32:14.330Z,23.14
2018-06-24T23:34:40.981Z,23.13
2018-06-24T23:37:07.630Z,23.11
2018-06-24T23:39:34.268Z,23.11
2018-06-24T23:42:00.943Z,23.11
2018-06-24T23:44:27.564Z,23.09
2018-06-24T23:46:54.202Z,23.11
2018-06-24T23:49:20.844Z,23.09
2018-06-24T23:51:47.493Z,23.08
2018-06-24T23:54:14.133Z,23.06
2018-06-24T23:56:40.807Z,23.03
2018-06-24T23:59:07.446Z,23.06
